createdAt,value
2019-02-26T00:01:52.993Z,33.63
2019-02-26T00:04:25.444Z,29.60
2019-02-26T00:06:57.828Z,37.73
2019-02-26T00:22:36.731Z,30.25
2019-02-26T00:25:08.531Z,33.63
2019-02-26T00:27:40.116Z,36.45
2019-02-26T00:30:13.612Z,31.25
2019-02-26T00:32:43.326Z,31.23
2019-02-26T00:35:13.641Z,29.87
2019-02-26T00:37:48.932Z,32.03
2019-02-26T00:40:20.290Z,30.48
2019-02-26T00:42:54.323Z,31.10
2019-02-26T00:45:26.949Z,30.62
2019-02-26T00:47:54.493Z,30.80
2019-02-26T00:50:25.011Z,26.95
2019-02-26T00:52:57.166Z,30.05
2019-02-26T00:55:29.840Z,32.03
2019-02-26T00:58:01.095Z,29.65
2019-02-26T01:00:33.194Z,25.50
2019-02-26T01:03:06.043Z,28.50
2019-02-26T01:05:36.996Z,32.83
2019-02-26T01:08:10.512Z,26.37
2019-02-26T01:10:41.519Z,28.02
2019-02-26T01:13:12.141Z,28.83
2019-02-26T01:15:42.908Z,26.87
2019-02-26T01:18:13.859Z,28.62
2019-02-26T01:20:44.280Z,23.90
2019-02-26T01:23:16.330Z,22.58
2019-02-26T01:25:46.795Z,24.98
2019-02-26T01:28:18.555Z,23.47
2019-02-26T01:30:51.412Z,22.98
2019-02-26T01:33:22.389Z,33.15
2019-02-26T01:35:55.512Z,30.60
2019-02-26T01:38:26.703Z,18.40
2019-02-26T01:40:57.433Z,32.17
2019-02-26T01:43:28.153Z,22.58
2019-02-26T01:45:58.774Z,21.73
2019-02-26T01:48:29.927Z,31.20
2019-02-26T01:51:01.166Z,29.48
2019-02-26T01:53:32.953Z,34.05
2019-02-26T01:56:05.091Z,33.20
2019-02-26T01:58:35.745Z,40.78
2019-02-26T02:01:06.262Z,34.00
2019-02-26T02:03:36.593Z,31.27
2019-02-26T02:06:10.636Z,32.63
2019-02-26T02:08:41.304Z,29.57
2019-02-26T02:11:11.442Z,25.95
2019-02-26T02:13:43.756Z,31.48
2019-02-26T02:16:13.556Z,26.95
2019-02-26T02:18:46.095Z,27.48
2019-02-26T02:21:15.842Z,28.65
2019-02-26T02:23:48.275Z,22.17
2019-02-26T02:26:19.668Z,27.40
2019-02-26T02:28:50.002Z,26.82
2019-02-26T02:31:22.052Z,28.67
2019-02-26T02:33:55.251Z,26.87
2019-02-26T02:36:28.219Z,29.37
2019-02-26T02:38:58.558Z,24.02
2019-02-26T02:41:28.926Z,26.37
2019-02-26T02:43:59.043Z,27.60
2019-02-26T02:46:29.548Z,26.15
2019-02-26T02:48:59.759Z,39.27
2019-02-26T02:51:31.481Z,27.93
2019-02-26T02:54:02.777Z,35.05
2019-02-26T02:56:35.566Z,25.57
2019-02-26T02:59:06.621Z,28.15
2019-02-26T03:01:38.464Z,23.83
2019-02-26T03:04:08.469Z,24.63
2019-02-26T03:06:39.419Z,28.67
2019-02-26T03:09:17.198Z,26.77
2019-02-26T03:11:49.427Z,20.92
2019-02-26T03:14:19.192Z,29.82
2019-02-26T03:16:51.405Z,23.30
2019-02-26T03:19:21.745Z,23.18
2019-02-26T03:21:53.182Z,19.05
2019-02-26T03:24:26.295Z,22.80
2019-02-26T03:26:56.339Z,24.27
2019-02-26T03:29:27.184Z,25.80
2019-02-26T03:31:57.819Z,32.58
2019-02-26T03:34:28.228Z,21.45
2019-02-26T03:36:59.886Z,27.37
2019-02-26T03:39:30.717Z,23.42
2019-02-26T03:42:01.468Z,27.45
2019-02-26T03:44:32.008Z,19.17
2019-02-26T03:47:02.433Z,24.05
2019-02-26T03:49:33.489Z,23.73
2019-02-26T03:52:03.661Z,26.97
2019-02-26T03:54:37.257Z,21.30
2019-02-26T03:57:06.115Z,25.17
2019-02-26T03:59:36.106Z,22.82
2019-02-26T04:02:07.292Z,25.37
2019-02-26T04:04:38.061Z,30.68
2019-02-26T04:07:10.701Z,27.75
2019-02-26T04:09:42.295Z,31.45
2019-02-26T04:12:13.582Z,30.20
2019-02-26T04:14:44.771Z,22.30
2019-02-26T04:17:15.562Z,21.27
2019-02-26T04:19:45.887Z,22.13
2019-02-26T04:22:40.208Z,27.17
2019-02-26T04:25:51.454Z,22.77
2019-02-26T04:28:32.975Z,28.05
2019-02-26T04:31:28.045Z,21.33
2019-02-26T04:34:23.404Z,25.20
2019-02-26T04:37:32.237Z,24.07
2019-02-26T04:40:16.670Z,23.92
2019-02-26T04:43:12.938Z,29.48
2019-02-26T04:46:25.571Z,27.13
2019-02-26T04:48:57.635Z,25.08
2019-02-26T04:51:36.343Z,24.75
2019-02-26T04:54:06.492Z,25.32
2019-02-26T04:56:39.485Z,19.05
2019-02-26T04:59:09.812Z,25.92
2019-02-26T05:01:40.864Z,21.37
2019-02-26T05:04:11.797Z,32.80
2019-02-26T05:06:41.907Z,27.55
2019-02-26T05:09:12.657Z,18.48
2019-02-26T05:11:43.487Z,19.75
2019-02-26T05:14:15.472Z,18.65
2019-02-26T05:16:45.656Z,23.67
2019-02-26T05:19:16.980Z,23.85
2019-02-26T05:21:48.074Z,46.40
2019-02-26T05:24:21.253Z,41.18
2019-02-26T05:26:50.831Z,43.28
2019-02-26T05:29:21.059Z,45.73
2019-02-26T05:31:51.495Z,28.20
2019-02-26T05:34:23.265Z,30.62
2019-02-26T05:36:53.806Z,27.17
2019-02-26T05:39:26.197Z,28.38
2019-02-26T05:41:58.953Z,27.80
2019-02-26T05:44:29.087Z,24.43
2019-02-26T05:47:01.609Z,25.40
2019-02-26T05:49:34.415Z,21.60
2019-02-26T05:52:04.217Z,24.15
2019-02-26T05:54:35.710Z,20.27
2019-02-26T05:57:06.744Z,22.27
2019-02-26T05:59:38.252Z,27.87
2019-02-26T06:02:10.594Z,23.40
2019-02-26T06:04:41.114Z,22.85
2019-02-26T06:07:12.342Z,18.82
2019-02-26T06:09:42.537Z,25.80
2019-02-26T06:12:13.106Z,22.27
2019-02-26T06:14:43.784Z,27.02
2019-02-26T06:17:15.488Z,17.10
2019-02-26T06:19:47.976Z,26.70
2019-02-26T06:22:21.408Z,22.52
2019-02-26T06:24:55.010Z,26.17
2019-02-26T06:27:25.164Z,33.45
2019-02-26T06:29:57.622Z,33.45
2019-02-26T06:32:29.967Z,28.35
2019-02-26T06:34:58.306Z,29.70
2019-02-26T06:37:29.077Z,40.90
2019-02-26T06:40:00.659Z,41.05
2019-02-26T06:42:33.245Z,34.27
2019-02-26T06:45:04.001Z,29.98
2019-02-26T06:47:34.483Z,29.87
2019-02-26T06:50:07.525Z,22.82
2019-02-26T06:52:38.182Z,25.92
2019-02-26T06:55:08.640Z,36.15
2019-02-26T06:57:38.811Z,27.45
2019-02-26T07:00:11.867Z,23.98
2019-02-26T07:02:45.471Z,26.65
2019-02-26T07:05:13.901Z,30.80
2019-02-26T07:07:44.272Z,23.70
2019-02-26T07:10:18.426Z,25.82
2019-02-26T07:12:48.865Z,24.27
2019-02-26T07:15:18.345Z,21.75
2019-02-26T07:17:48.041Z,27.87
2019-02-26T07:20:17.902Z,23.83
2019-02-26T07:22:49.614Z,26.85
2019-02-26T07:25:19.519Z,30.50
2019-02-26T07:27:51.202Z,32.23
2019-02-26T07:30:20.864Z,26.75
2019-02-26T07:32:50.386Z,25.40
2019-02-26T07:35:20.164Z,30.02
2019-02-26T07:37:49.902Z,38.45
2019-02-26T07:40:19.417Z,30.37
2019-02-26T07:42:49.549Z,45.12
2019-02-26T07:45:21.894Z,33.85
2019-02-26T07:47:51.470Z,32.55
2019-02-26T07:50:22.183Z,33.42
2019-02-26T07:52:52.618Z,32.05
2019-02-26T07:55:23.623Z,34.67
2019-02-26T07:57:53.712Z,30.32
2019-02-26T08:00:23.982Z,28.52
2019-02-26T08:02:54.809Z,35.28
2019-02-26T08:05:26.782Z,29.30
2019-02-26T08:07:56.642Z,32.38
2019-02-26T08:10:26.522Z,30.95
2019-02-26T08:12:56.719Z,22.77
2019-02-26T08:15:27.794Z,30.00
2019-02-26T08:18:00.402Z,28.17
2019-02-26T08:20:30.448Z,23.27
2019-02-26T08:23:01.381Z,25.43
2019-02-26T08:25:31.185Z,27.85
2019-02-26T08:28:01.238Z,27.80
2019-02-26T08:30:31.305Z,24.50
2019-02-26T08:33:04.155Z,21.82
2019-02-26T08:35:32.441Z,29.48
2019-02-26T08:38:05.685Z,21.90
2019-02-26T08:40:33.821Z,36.60
2019-02-26T08:43:03.279Z,26.50
2019-02-26T08:45:32.915Z,26.17
2019-02-26T08:48:02.562Z,32.30
2019-02-26T08:50:33.307Z,27.50
2019-02-26T08:53:03.399Z,26.00
2019-02-26T08:55:33.181Z,28.13
2019-02-26T08:58:02.621Z,42.47
2019-02-26T09:00:34.211Z,37.13
2019-02-26T09:03:03.944Z,39.90
2019-02-26T09:05:34.472Z,35.23
2019-02-26T09:08:05.963Z,28.50
2019-02-26T09:10:38.587Z,31.60
2019-02-26T09:13:09.387Z,33.80
2019-02-26T09:15:40.833Z,34.70
2019-02-26T09:18:10.303Z,25.23
2019-02-26T09:20:39.994Z,31.27
2019-02-26T09:23:09.702Z,28.73
2019-02-26T09:25:39.433Z,23.40
2019-02-26T09:28:09.032Z,41.37
2019-02-26T09:30:38.996Z,22.40
2019-02-26T09:33:11.098Z,29.17
2019-02-26T09:35:40.803Z,34.37
2019-02-26T09:38:12.314Z,26.90
2019-02-26T09:40:41.959Z,31.43
2019-02-26T09:43:12.908Z,26.63
2019-02-26T09:45:43.574Z,22.50
2019-02-26T09:48:15.250Z,29.77
2019-02-26T09:50:46.323Z,39.03
2019-02-26T09:53:16.656Z,28.20
2019-02-26T09:55:46.186Z,39.23
2019-02-26T09:58:16.420Z,23.60
2019-02-26T10:00:48.094Z,23.37
2019-02-26T10:03:18.652Z,32.00
2019-02-26T10:05:50.257Z,33.17
2019-02-26T10:08:19.958Z,36.77
2019-02-26T10:10:51.993Z,24.40
2019-02-26T10:13:23.258Z,23.33
2019-02-26T10:15:53.667Z,35.97
2019-02-26T10:18:25.171Z,37.97
2019-02-26T10:20:54.712Z,37.80
2019-02-26T10:23:26.353Z,29.53
2019-02-26T10:25:57.918Z,36.03
2019-02-26T10:28:27.220Z,27.90
2019-02-26T10:30:57.466Z,30.10
2019-02-26T10:33:27.825Z,30.93
2019-02-26T10:35:57.460Z,25.67
2019-02-26T10:38:29.564Z,27.63
2019-02-26T10:40:59.739Z,35.90
2019-02-26T10:43:29.620Z,31.07
2019-02-26T10:45:59.264Z,30.33
2019-02-26T10:48:28.765Z,36.87
2019-02-26T10:50:58.420Z,34.47
2019-02-26T10:53:27.979Z,24.20
2019-02-26T10:55:57.685Z,19.20
2019-02-26T10:58:27.609Z,23.67
2019-02-26T11:00:59.419Z,24.40
2019-02-26T11:03:29.788Z,25.53
2019-02-26T11:05:59.622Z,27.40
2019-02-26T11:08:30.525Z,26.90
2019-02-26T11:11:00.583Z,25.50
2019-02-26T11:13:30.220Z,34.80
2019-02-26T11:16:02.893Z,29.93
2019-02-26T11:18:31.059Z,21.90
2019-02-26T11:21:00.611Z,19.30
2019-02-26T11:23:31.392Z,21.87
2019-02-26T11:26:01.870Z,22.40
2019-02-26T11:28:32.925Z,19.67
2019-02-26T11:31:03.582Z,21.73
2019-02-26T11:33:33.099Z,22.73
2019-02-26T11:36:03.096Z,14.57
2019-02-26T11:38:35.296Z,21.67
2019-02-26T11:41:05.623Z,16.23
2019-02-26T11:43:35.505Z,17.70
2019-02-26T11:46:06.789Z,11.73
2019-02-26T11:48:37.059Z,15.40
2019-02-26T11:51:06.579Z,20.50
2019-02-26T11:53:36.461Z,13.77
2019-02-26T11:56:06.339Z,19.00
2019-02-26T11:58:35.859Z,14.40
2019-02-26T12:01:10.418Z,18.47
2019-02-26T12:03:41.666Z,24.93
2019-02-26T12:06:11.502Z,16.87
2019-02-26T12:08:43.111Z,24.33
2019-02-26T12:11:16.573Z,18.20
2019-02-26T12:13:44.719Z,14.97
2019-02-26T12:16:15.189Z,16.83
2019-02-26T12:18:46.885Z,23.40
2019-02-26T12:21:16.300Z,16.87
2019-02-26T12:23:46.729Z,20.90
2019-02-26T12:26:19.177Z,17.13
2019-02-26T12:28:48.339Z,21.27
2019-02-26T12:31:17.845Z,21.37
2019-02-26T12:33:47.662Z,17.83
2019-02-26T12:36:17.622Z,26.43
2019-02-26T12:38:50.133Z,22.30
2019-02-26T12:41:20.943Z,25.47
2019-02-26T12:43:50.281Z,23.10
2019-02-26T12:46:21.678Z,20.67
2019-02-26T12:48:51.251Z,23.63
2019-02-26T12:51:22.599Z,23.13
2019-02-26T12:53:52.538Z,20.30
2019-02-26T12:56:24.285Z,23.60
2019-02-26T12:58:54.715Z,26.40
2019-02-26T13:01:24.462Z,23.43
2019-02-26T13:03:54.953Z,24.60
2019-02-26T13:06:25.025Z,25.27
2019-02-26T13:08:54.531Z,24.43
2019-02-26T13:11:25.184Z,21.80
2019-02-26T13:13:55.442Z,36.33
2019-02-26T13:16:24.884Z,23.40
2019-02-26T13:18:58.529Z,22.60
2019-02-26T13:21:25.736Z,19.53
2019-02-26T13:23:58.696Z,23.03
2019-02-26T13:26:26.589Z,30.40
2019-02-26T13:29:00.044Z,24.40
2019-02-26T13:31:27.580Z,25.43
2019-02-26T13:33:57.354Z,24.07
2019-02-26T13:36:26.978Z,29.23
2019-02-26T13:38:56.557Z,30.87
2019-02-26T13:41:30.007Z,26.50
2019-02-26T13:43:57.413Z,29.87
2019-02-26T13:46:27.218Z,33.63
2019-02-26T13:48:56.831Z,25.60
2019-02-26T13:51:26.851Z,24.00
2019-02-26T13:53:56.497Z,25.17
2019-02-26T13:56:25.910Z,26.63
2019-02-26T13:58:56.023Z,22.93
2019-02-26T14:01:25.776Z,28.30
2019-02-26T14:03:55.536Z,25.20
2019-02-26T14:06:25.178Z,23.17
2019-02-26T14:08:55.179Z,31.00
2019-02-26T14:11:24.772Z,23.80
2019-02-26T14:13:55.056Z,25.13
2019-02-26T14:16:24.818Z,21.30
2019-02-26T14:18:54.582Z,24.40
2019-02-26T14:21:24.340Z,24.83
2019-02-26T14:23:54.082Z,23.90
2019-02-26T14:26:23.983Z,19.97
2019-02-26T14:28:53.915Z,21.93
2019-02-26T14:31:23.821Z,23.27
2019-02-26T14:33:53.944Z,20.70
2019-02-26T14:36:23.737Z,19.87
2019-02-26T14:38:53.356Z,23.83
2019-02-26T14:41:23.063Z,20.00
2019-02-26T14:43:52.783Z,23.03
2019-02-26T14:46:22.280Z,21.73
2019-02-26T14:48:52.064Z,20.27
2019-02-26T14:51:21.718Z,26.00
2019-02-26T14:53:51.815Z,27.33
2019-02-26T14:56:21.524Z,22.17
2019-02-26T14:58:51.102Z,32.60
2019-02-26T15:01:20.735Z,23.60
2019-02-26T15:03:50.736Z,25.30
2019-02-26T15:06:20.254Z,26.83
2019-02-26T15:08:50.025Z,28.07
2019-02-26T15:11:19.567Z,33.47
2019-02-26T15:13:49.996Z,25.30
2019-02-26T15:16:20.262Z,25.00
2019-02-26T15:18:49.928Z,26.60
2019-02-26T15:21:19.737Z,24.40
2019-02-26T15:23:50.359Z,24.30
2019-02-26T15:26:20.019Z,22.33
2019-02-26T15:28:49.478Z,23.73
2019-02-26T15:31:19.389Z,20.70
2019-02-26T15:33:49.095Z,26.20
2019-02-26T15:36:18.937Z,21.80
2019-02-26T15:38:48.698Z,24.13
2019-02-26T15:41:18.458Z,19.33
2019-02-26T15:43:48.095Z,20.27
2019-02-26T15:46:17.739Z,20.20
2019-02-26T15:48:47.257Z,23.13
2019-02-26T15:51:19.886Z,14.23
2019-02-26T15:53:48.337Z,17.07
2019-02-26T15:56:17.864Z,15.67
2019-02-26T15:58:47.500Z,16.10
2019-02-26T16:01:17.259Z,17.70
2019-02-26T16:03:46.903Z,11.67
2019-02-26T16:06:16.778Z,14.03
2019-02-26T16:08:46.421Z,11.77
2019-02-26T16:11:15.941Z,11.40
2019-02-26T16:13:45.937Z,22.47
2019-02-26T16:16:15.404Z,15.33
2019-02-26T16:18:45.096Z,15.57
2019-02-26T16:21:18.457Z,13.50
2019-02-26T16:23:46.777Z,19.03
2019-02-26T16:26:17.499Z,16.47
2019-02-26T16:28:46.988Z,25.40
2019-02-26T16:31:16.697Z,20.17
2019-02-26T16:33:46.739Z,17.77
2019-02-26T16:36:17.136Z,17.23
2019-02-26T16:38:50.546Z,19.13
2019-02-26T16:41:18.215Z,27.80
2019-02-26T16:43:51.633Z,18.60
2019-02-26T16:46:19.175Z,22.50
2019-02-26T16:48:49.060Z,18.23
2019-02-26T16:51:21.569Z,15.33
2019-02-26T16:53:50.024Z,19.03
2019-02-26T16:56:21.943Z,33.50
2019-02-26T16:58:51.699Z,15.63
2019-02-26T17:01:21.934Z,17.60
2019-02-26T17:03:52.301Z,20.93
2019-02-26T17:06:21.936Z,24.97
2019-02-26T17:08:51.617Z,27.13
2019-02-26T17:11:21.699Z,24.47
2019-02-26T17:13:51.367Z,22.03
2019-02-26T17:16:20.974Z,32.73
2019-02-26T17:18:50.622Z,24.73
2019-02-26T17:21:21.119Z,27.17
2019-02-26T17:23:51.942Z,21.17
2019-02-26T17:26:22.171Z,32.83
2019-02-26T17:28:51.879Z,23.37
2019-02-26T17:31:22.225Z,24.93
2019-02-26T17:33:52.965Z,37.07
2019-02-26T17:36:23.287Z,33.63
2019-02-26T17:38:53.508Z,37.23
2019-02-26T17:41:23.279Z,37.40
2019-02-26T17:43:52.885Z,35.43
2019-02-26T17:46:23.020Z,27.90
2019-02-26T17:48:52.611Z,29.90
2019-02-26T17:51:22.595Z,31.43
2019-02-26T17:53:52.240Z,23.80
2019-02-26T17:56:21.774Z,27.93
2019-02-26T17:58:51.574Z,24.00
2019-02-26T18:01:21.215Z,24.50
2019-02-26T18:03:51.225Z,31.90
2019-02-26T18:06:20.738Z,28.37
2019-02-26T18:08:51.164Z,28.40
2019-02-26T18:11:23.508Z,22.10
2019-02-26T18:13:53.255Z,22.07
2019-02-26T18:16:23.395Z,25.07
2019-02-26T18:18:54.375Z,34.47
2019-02-26T18:21:24.741Z,33.63
2019-02-26T18:23:56.618Z,25.27
2019-02-26T18:26:26.923Z,28.60
2019-02-26T18:29:00.220Z,34.03
2019-02-26T18:31:31.647Z,23.13
2019-02-26T18:34:02.302Z,40.97
2019-02-26T18:36:33.166Z,35.40
2019-02-26T18:39:03.930Z,25.93
2019-02-26T18:41:37.069Z,21.70
2019-02-26T18:44:06.883Z,25.13
2019-02-26T18:46:37.102Z,24.90
2019-02-26T18:49:07.735Z,32.30
2019-02-26T18:51:38.624Z,23.80
2019-02-26T18:54:09.401Z,25.40
2019-02-26T18:56:42.603Z,21.90
2019-02-26T18:59:13.323Z,33.83
2019-02-26T19:01:47.293Z,33.27
2019-02-26T19:04:18.093Z,36.67
2019-02-26T19:06:48.976Z,27.00
2019-02-26T19:09:19.737Z,33.02
2019-02-26T19:11:49.987Z,32.53
2019-02-26T19:14:21.464Z,30.80
2019-02-26T19:16:54.390Z,31.27
2019-02-26T19:19:26.653Z,32.90
2019-02-26T19:21:58.862Z,27.90
2019-02-26T19:24:35.628Z,32.63
2019-02-26T19:27:02.676Z,44.35
2019-02-26T19:29:33.538Z,28.27
2019-02-26T19:32:04.313Z,35.40
2019-02-26T19:34:34.585Z,39.27
2019-02-26T19:37:04.812Z,31.47
2019-02-26T19:39:34.928Z,33.93
2019-02-26T19:42:05.972Z,40.00
2019-02-26T19:44:36.495Z,66.47
2019-02-26T19:47:14.222Z,32.80
2019-02-26T19:49:42.577Z,40.05
2019-02-26T19:52:13.028Z,33.63
2019-02-26T19:54:43.416Z,38.42
2019-02-26T19:57:13.987Z,38.60
2019-02-26T19:59:46.927Z,34.27
2019-02-26T20:02:20.479Z,39.75
2019-02-26T20:04:51.186Z,35.28
2019-02-26T20:07:24.931Z,50.73
2019-02-26T20:09:56.639Z,47.60
2019-02-26T20:12:29.201Z,51.63
2019-02-26T20:15:00.310Z,61.45
2019-02-26T20:17:31.019Z,62.23
2019-02-26T20:20:16.799Z,64.58
2019-02-26T20:22:47.837Z,62.10
2019-02-26T20:25:20.314Z,69.15
2019-02-26T20:27:55.151Z,61.80
2019-02-26T20:30:26.595Z,53.87
2019-02-26T20:32:57.226Z,54.13
2019-02-26T20:35:29.086Z,44.42
2019-02-26T20:37:59.514Z,39.13
2019-02-26T20:40:31.160Z,39.78
2019-02-26T20:43:01.991Z,41.20
2019-02-26T20:45:36.638Z,40.83
2019-02-26T20:48:07.063Z,38.58
2019-02-26T20:50:37.286Z,37.33
2019-02-26T20:53:07.513Z,32.65
2019-02-26T20:55:40.901Z,38.53
2019-02-26T20:58:12.430Z,38.23
2019-02-26T21:00:43.504Z,38.58
2019-02-26T21:03:14.201Z,33.75
2019-02-26T21:05:45.346Z,37.75
2019-02-26T21:08:15.668Z,34.00
2019-02-26T21:10:47.998Z,40.20
2019-02-26T21:13:18.096Z,39.20
2019-02-26T21:15:48.226Z,33.13
2019-02-26T21:18:19.060Z,33.85
2019-02-26T21:20:49.656Z,29.60
2019-02-26T21:23:20.014Z,34.08
2019-02-26T21:25:50.405Z,28.90
2019-02-26T21:28:22.098Z,45.98
2019-02-26T21:30:52.053Z,37.65
2019-02-26T21:33:22.080Z,33.45
2019-02-26T21:35:54.291Z,28.92
2019-02-26T21:38:24.629Z,25.50
2019-02-26T21:40:55.468Z,32.53
2019-02-26T21:43:26.103Z,32.33
2019-02-26T21:45:56.937Z,31.85
2019-02-26T21:48:27.466Z,32.50
2019-02-26T21:50:58.098Z,35.20
2019-02-26T21:53:28.832Z,37.50
2019-02-26T21:56:00.097Z,41.58
2019-02-26T21:58:30.712Z,42.48
2019-02-26T22:01:02.741Z,32.78
2019-02-26T22:03:33.513Z,43.90
2019-02-26T22:06:05.598Z,34.25
2019-02-26T22:09:07.549Z,34.27
2019-02-26T22:11:38.384Z,36.50
2019-02-26T22:14:08.710Z,41.68
2019-02-26T22:16:39.539Z,31.15
2019-02-26T22:19:10.490Z,32.98
2019-02-26T22:21:51.875Z,34.88
2019-02-26T22:24:34.658Z,31.15
2019-02-26T22:27:05.304Z,25.12
2019-02-26T22:29:36.417Z,28.92
2019-02-26T22:32:06.869Z,34.18
2019-02-26T22:34:37.911Z,32.78
2019-02-26T22:37:11.180Z,35.35
2019-02-26T22:39:41.870Z,36.50
2019-02-26T22:42:12.397Z,39.00
2019-02-26T22:44:42.822Z,39.73
2019-02-26T22:47:13.643Z,36.60
2019-02-26T22:49:43.982Z,29.45
2019-02-26T22:52:14.515Z,34.88
2019-02-26T22:54:44.862Z,31.23
2019-02-26T22:57:15.268Z,37.05
2019-02-26T22:59:45.696Z,36.38
2019-02-26T23:02:16.433Z,36.25
2019-02-26T23:04:46.448Z,39.13
2019-02-26T23:07:16.614Z,34.98
2019-02-26T23:09:52.927Z,32.90
2019-02-26T23:12:21.008Z,31.07
2019-02-26T23:14:51.472Z,35.43
2019-02-26T23:17:24.718Z,52.03
2019-02-26T23:19:54.650Z,28.05
2019-02-26T23:22:24.718Z,32.98
2019-02-26T23:24:55.221Z,38.42
2019-02-26T23:27:25.723Z,29.80
2019-02-26T23:29:58.733Z,30.17
2019-02-26T23:32:29.549Z,27.90
2019-02-26T23:35:12.069Z,25.88
2019-02-26T23:37:45.101Z,33.55
2019-02-26T23:40:15.995Z,29.63
2019-02-26T23:42:46.414Z,37.28
2019-02-26T23:45:17.559Z,42.62
2019-02-26T23:47:48.603Z,38.40
2019-02-26T23:50:28.043Z,30.77
2019-02-26T23:53:00.909Z,38.02
2019-02-26T23:55:30.431Z,36.93
2019-02-26T23:58:01.067Z,42.65
